sensor_id;sensor_type;location;lat;lon;timestamp;pressure;altitude;pressure_sealevel;temperature;humidity
63281;BME280;49406;51.044;3.766;2022-10-14T00:00:25;101525.98;;;14.35;100.00
63281;BME280;49406;51.044;3.766;2022-10-14T00:02:43;101525.43;;;14.28;100.00
63281;BME280;49406;51.044;3.766;2022-10-14T00:05:03;101521.73;;;14.25;100.00
63281;BME280;49406;51.044;3.766;2022-10-14T00:07:22;101520.70;;;14.33;100.00
63281;BME280;49406;51.044;3.766;2022-10-14T00:09:42;101514.55;;;14.35;100.00
63281;BME280;49406;51.044;3.766;2022-10-14T00:12:01;101517.20;;;14.36;100.00
63281;BME280;49406;51.044;3.766;2022-10-14T00:14:21;101511.58;;;14.37;100.00
63281;BME280;49406;51.044;3.766;2022-10-14T00:16:42;101510.66;;;14.28;100.00
63281;BME280;49406;51.044;3.766;2022-10-14T00:19:02;101506.10;;;14.32;100.00
63281;BME280;49406;51.044;3.766;2022-10-14T00:21:22;101500.84;;;14.38;100.00
63281;BME280;49406;51.044;3.766;2022-10-14T00:23:41;101505.06;;;14.39;100.00
63281;BME280;49406;51.044;3.766;2022-10-14T00:25:59;101507.17;;;14.41;100.00
63281;BME280;49406;51.044;3.766;2022-10-14T00:28:19;101504.17;;;14.36;100.00
63281;BME280;49406;51.044;3.766;2022-10-14T00:30:38;101500.13;;;14.33;100.00
63281;BME280;49406;51.044;3.766;2022-10-14T00:32:57;101502.79;;;14.42;100.00
63281;BME280;49406;51.044;3.766;2022-10-14T00:35:17;101503.01;;;14.45;100.00
63281;BME280;49406;51.044;3.766;2022-10-14T00:37:36;101509.36;;;14.47;100.00
63281;BME280;49406;51.044;3.766;2022-10-14T00:39:56;101502.13;;;14.46;100.00
63281;BME280;49406;51.044;3.766;2022-10-14T00:42:15;101501.55;;;14.37;100.00
63281;BME280;49406;51.044;3.766;2022-10-14T00:47:10;101500.21;;;14.48;100.00
63281;BME280;49406;51.044;3.766;2022-10-14T00:49:32;101500.56;;;14.50;100.00
63281;BME280;49406;51.044;3.766;2022-10-14T00:51:54;101492.82;;;14.52;100.00
63281;BME280;49406;51.044;3.766;2022-10-14T00:54:16;101487.33;;;14.43;100.00
63281;BME280;49406;51.044;3.766;2022-10-14T00:56:37;101488.19;;;14.40;100.00
63281;BME280;49406;51.044;3.766;2022-10-14T00:58:56;101489.30;;;14.50;100.00
63281;BME280;49406;51.044;3.766;2022-10-14T01:01:16;101495.11;;;14.52;100.00
63281;BME280;49406;51.044;3.766;2022-10-14T01:03:34;101495.98;;;14.53;100.00
63281;BME280;49406;51.044;3.766;2022-10-14T01:05:59;101495.11;;;14.53;100.00
63281;BME280;49406;51.044;3.766;2022-10-14T01:08:24;101495.11;;;14.53;100.00
63281;BME280;49406;51.044;3.766;2022-10-14T01:10:52;101496.46;;;14.42;100.00
63281;BME280;49406;51.044;3.766;2022-10-14T01:13:22;101495.98;;;14.47;100.00
63281;BME280;49406;51.044;3.766;2022-10-14T01:15:48;101499.16;;;14.54;100.00
63281;BME280;49406;51.044;3.766;2022-10-14T01:18:22;101491.77;;;14.55;100.00
63281;BME280;49406;51.044;3.766;2022-10-14T01:21:08;101490.36;;;14.55;100.00
63281;BME280;49406;51.044;3.766;2022-10-14T01:23:41;101488.95;;;14.53;100.00
63281;BME280;49406;51.044;3.766;2022-10-14T01:26:19;101489.09;;;14.45;100.00
63281;BME280;49406;51.044;3.766;2022-10-14T01:28:48;101483.49;;;14.54;100.00
63281;BME280;49406;51.044;3.766;2022-10-14T01:31:15;101480.34;;;14.55;100.00
63281;BME280;49406;51.044;3.766;2022-10-14T01:33:38;101478.57;;;14.58;100.00
63281;BME280;49406;51.044;3.766;2022-10-14T01:36:03;101476.11;;;14.59;100.00
63281;BME280;49406;51.044;3.766;2022-10-14T01:38:28;101475.94;;;14.60;100.00
63281;BME280;49406;51.044;3.766;2022-10-14T01:40:51;101476.11;;;14.49;100.00
63281;BME280;49406;51.044;3.766;2022-10-14T01:43:12;101474.70;;;14.53;100.00
63281;BME280;49406;51.044;3.766;2022-10-14T01:45:35;101473.13;;;14.60;100.00
63281;BME280;49406;51.044;3.766;2022-10-14T01:47:57;101467.88;;;14.62;100.00
63281;BME280;49406;51.044;3.766;2022-10-14T01:50:20;101461.54;;;14.62;100.00
63281;BME280;49406;51.044;3.766;2022-10-14T01:52:45;101457.48;;;14.61;100.00
63281;BME280;49406;51.044;3.766;2022-10-14T01:55:06;101452.73;;;14.60;100.00
63281;BME280;49406;51.044;3.766;2022-10-14T01:57:29;101448.48;;;14.48;100.00
63281;BME280;49406;51.044;3.766;2022-10-14T01:59:50;101447.96;;;14.53;100.00
63281;BME280;49406;51.044;3.766;2022-10-14T02:02:09;101440.57;;;14.55;100.00
63281;BME280;49406;51.044;3.766;2022-10-14T02:04:29;101438.98;;;14.55;100.00
63281;BME280;49406;51.044;3.766;2022-10-14T02:06:53;101431.94;;;14.57;100.00
63281;BME280;49406;51.044;3.766;2022-10-14T02:09:13;101428.77;;;14.56;100.00
63281;BME280;49406;51.044;3.766;2022-10-14T02:11:40;101425.44;;;14.47;100.00
63281;BME280;49406;51.044;3.766;2022-10-14T02:14:09;101418.75;;;14.53;100.00
63281;BME280;49406;51.044;3.766;2022-10-14T02:16:31;101408.89;;;14.58;100.00
63281;BME280;49406;51.044;3.766;2022-10-14T02:18:57;101401.15;;;14.58;100.00
63281;BME280;49406;51.044;3.766;2022-10-14T02:21:23;101405.55;;;14.59;100.00
63281;BME280;49406;51.044;3.766;2022-10-14T02:23:47;101417.34;;;14.61;100.00
63281;BME280;49406;51.044;3.766;2022-10-14T02:26:08;101423.16;;;14.59;100.00
63281;BME280;49406;51.044;3.766;2022-10-14T02:28:29;101421.04;;;14.50;100.00
63281;BME280;49406;51.044;3.766;2022-10-14T02:30:52;101410.13;;;14.56;100.00
63281;BME280;49406;51.044;3.766;2022-10-14T02:33:12;101406.09;;;14.61;100.00
63281;BME280;49406;51.044;3.766;2022-10-14T02:35:30;101397.63;;;14.60;100.00
63281;BME280;49406;51.044;3.766;2022-10-14T02:37:52;101388.13;;;14.59;100.00
63281;BME280;49406;51.044;3.766;2022-10-14T02:40:15;101388.48;;;14.61;100.00
63281;BME280;49406;51.044;3.766;2022-10-14T02:42:36;101389.39;;;14.61;100.00
63281;BME280;49406;51.044;3.766;2022-10-14T02:44:57;101388.13;;;14.56;100.00
63281;BME280;49406;51.044;3.766;2022-10-14T02:47:17;101389.02;;;14.48;100.00
63281;BME280;49406;51.044;3.766;2022-10-14T02:49:36;101387.77;;;14.55;100.00
63281;BME280;49406;51.044;3.766;2022-10-14T02:51:55;101386.02;;;14.58;100.00
63281;BME280;49406;51.044;3.766;2022-10-14T02:54:15;101386.54;;;14.59;100.00
63281;BME280;49406;51.044;3.766;2022-10-14T02:56:34;101386.73;;;14.61;100.00
63281;BME280;49406;51.044;3.766;2022-10-14T02:58:52;101380.75;;;14.61;100.00
63281;BME280;49406;51.044;3.766;2022-10-14T03:01:11;101379.52;;;14.62;100.00
63281;BME280;49406;51.044;3.766;2022-10-14T03:03:31;101379.53;;;14.63;100.00
63281;BME280;49406;51.044;3.766;2022-10-14T03:05:48;101379.52;;;14.60;100.00
63281;BME280;49406;51.044;3.766;2022-10-14T03:08:08;101377.58;;;14.51;100.00
63281;BME280;49406;51.044;3.766;2022-10-14T03:10:27;101374.95;;;14.60;100.00
63281;BME280;49406;51.044;3.766;2022-10-14T03:12:47;101372.31;;;14.62;100.00
63281;BME280;49406;51.044;3.766;2022-10-14T03:15:08;101371.61;;;14.63;100.00
63281;BME280;49406;51.044;3.766;2022-10-14T03:17:28;101375.13;;;14.66;100.00
63281;BME280;49406;51.044;3.766;2022-10-14T03:19:47;101374.59;;;14.62;100.00
63281;BME280;49406;51.044;3.766;2022-10-14T03:22:05;101372.30;;;14.56;100.00
63281;BME280;49406;51.044;3.766;2022-10-14T03:24:24;101367.56;;;14.63;100.00
63281;BME280;49406;51.044;3.766;2022-10-14T03:26:44;101363.34;;;14.66;100.00
63281;BME280;49406;51.044;3.766;2022-10-14T03:29:03;101354.71;;;14.66;100.00
63281;BME280;49406;51.044;3.766;2022-10-14T03:31:22;101349.26;;;14.66;100.00
63281;BME280;49406;51.044;3.766;2022-10-14T03:33:42;101349.25;;;14.67;100.00
63281;BME280;49406;51.044;3.766;2022-10-14T03:36:01;101348.38;;;14.65;100.00
63281;BME280;49406;51.044;3.766;2022-10-14T03:38:21;101348.20;;;14.53;100.00
63281;BME280;49406;51.044;3.766;2022-10-14T03:40:40;101355.59;;;14.59;100.00
63281;BME280;49406;51.044;3.766;2022-10-14T03:43:00;101352.79;;;14.63;100.00
63281;BME280;49406;51.044;3.766;2022-10-14T03:45:20;101347.86;;;14.63;100.00
63281;BME280;49406;51.044;3.766;2022-10-14T03:47:39;101348.20;;;14.64;100.00
63281;BME280;49406;51.044;3.766;2022-10-14T03:49:58;101348.73;;;14.63;100.00
63281;BME280;49406;51.044;3.766;2022-10-14T03:52:19;101343.44;;;14.55;100.00
63281;BME280;49406;51.044;3.766;2022-10-14T03:54:39;101338.34;;;14.54;100.00
63281;BME280;49406;51.044;3.766;2022-10-14T03:56:58;101337.63;;;14.59;100.00
63281;BME280;49406;51.044;3.766;2022-10-14T03:59:18;101334.81;;;14.60;100.00
63281;BME280;49406;51.044;3.766;2022-10-14T04:01:37;101331.11;;;14.59;100.00
63281;BME280;49406;51.044;3.766;2022-10-14T04:03:56;101323.72;;;14.60;100.00
63281;BME280;49406;51.044;3.766;2022-10-14T04:06:16;101326.01;;;14.60;100.00
63281;BME280;49406;51.044;3.766;2022-10-14T04:08:35;101330.25;;;14.60;100.00
63281;BME280;49406;51.044;3.766;2022-10-14T04:10:55;101326.56;;;14.62;100.00
63281;BME280;49406;51.044;3.766;2022-10-14T04:13:15;101328.67;;;14.64;100.00
63281;BME280;49406;51.044;3.766;2022-10-14T04:15:35;101330.25;;;14.65;100.00
63281;BME280;49406;51.044;3.766;2022-10-14T04:17:54;101330.42;;;14.65;100.00
63281;BME280;49406;51.044;3.766;2022-10-14T04:20:14;101330.44;;;14.65;100.00
63281;BME280;49406;51.044;3.766;2022-10-14T04:22:34;101329.71;;;14.54;100.00
63281;BME280;49406;51.044;3.766;2022-10-14T04:24:54;101329.90;;;14.60;100.00
63281;BME280;49406;51.044;3.766;2022-10-14T04:27:13;101327.80;;;14.64;100.00
63281;BME280;49406;51.044;3.766;2022-10-14T04:29:32;101326.73;;;14.66;100.00
63281;BME280;49406;51.044;3.766;2022-10-14T04:31:51;101325.67;;;14.68;100.00
63281;BME280;49406;51.044;3.766;2022-10-14T04:34:11;101326.37;;;14.67;100.00
63281;BME280;49406;51.044;3.766;2022-10-14T04:36:31;101324.09;;;14.66;100.00
63281;BME280;49406;51.044;3.766;2022-10-14T04:38:50;101320.05;;;14.64;100.00
63281;BME280;49406;51.044;3.766;2022-10-14T04:41:09;101317.59;;;14.52;100.00
63281;BME280;49406;51.044;3.766;2022-10-14T04:43:28;101316.70;;;14.56;100.00
63281;BME280;49406;51.044;3.766;2022-10-14T04:45:48;101314.92;;;14.59;100.00
63281;BME280;49406;51.044;3.766;2022-10-14T04:48:06;101314.59;;;14.61;100.00
63281;BME280;49406;51.044;3.766;2022-10-14T04:50:24;101307.73;;;14.61;100.00
63281;BME280;49406;51.044;3.766;2022-10-14T04:52:41;101307.73;;;14.62;100.00
63281;BME280;49406;51.044;3.766;2022-10-14T04:55:01;101299.80;;;14.60;100.00
63281;BME280;49406;51.044;3.766;2022-10-14T04:57:21;101300.69;;;14.60;100.00
63281;BME280;49406;51.044;3.766;2022-10-14T04:59:40;101295.07;;;14.62;100.00
63281;BME280;49406;51.044;3.766;2022-10-14T05:01:58;101293.81;;;14.61;100.00
63281;BME280;49406;51.044;3.766;2022-10-14T05:04:17;101290.48;;;14.52;100.00
63281;BME280;49406;51.044;3.766;2022-10-14T05:06:37;101290.83;;;14.45;100.00
63281;BME280;49406;51.044;3.766;2022-10-14T05:08:56;101287.67;;;14.52;100.00
63281;BME280;49406;51.044;3.766;2022-10-14T05:11:15;101286.61;;;14.57;100.00
63281;BME280;49406;51.044;3.766;2022-10-14T05:13:35;101288.00;;;14.60;100.00
63281;BME280;49406;51.044;3.766;2022-10-14T05:15:54;101290.48;;;14.62;100.00
63281;BME280;49406;51.044;3.766;2022-10-14T05:18:14;101289.78;;;14.61;100.00
63281;BME280;49406;51.044;3.766;2022-10-14T05:20:33;101284.52;;;14.49;100.00
63281;BME280;49406;51.044;3.766;2022-10-14T05:22:54;101284.85;;;14.55;100.00
63281;BME280;49406;51.044;3.766;2022-10-14T05:25:14;101284.66;;;14.59;100.00
63281;BME280;49406;51.044;3.766;2022-10-14T05:27:33;101280.79;;;14.59;100.00
63281;BME280;49406;51.044;3.766;2022-10-14T05:29:53;101270.05;;;14.59;100.00
63281;BME280;49406;51.044;3.766;2022-10-14T05:32:12;101263.37;;;14.60;100.00
63281;BME280;49406;51.044;3.766;2022-10-14T05:34:31;101256.69;;;14.57;100.00
63281;BME280;49406;51.044;3.766;2022-10-14T05:36:51;101253.38;;;14.50;100.00
63281;BME280;49406;51.044;3.766;2022-10-14T05:39:11;101245.95;;;14.58;100.00
63281;BME280;49406;51.044;3.766;2022-10-14T05:41:29;101241.05;;;14.61;100.00
63281;BME280;49406;51.044;3.766;2022-10-14T05:43:49;101239.44;;;14.60;100.00
63281;BME280;49406;51.044;3.766;2022-10-14T05:46:08;101237.67;;;14.60;100.00
63281;BME280;49406;51.044;3.766;2022-10-14T05:48:27;101238.21;;;14.59;100.00
63281;BME280;49406;51.044;3.766;2022-10-14T05:50:47;101234.69;;;14.60;100.00
63281;BME280;49406;51.044;3.766;2022-10-14T05:53:07;101232.96;;;14.48;100.00
63281;BME280;49406;51.044;3.766;2022-10-14T05:55:26;101234.73;;;14.49;100.00
63281;BME280;49406;51.044;3.766;2022-10-14T05:57:45;101238.23;;;14.56;100.00
63281;BME280;49406;51.044;3.766;2022-10-14T06:00:06;101240.85;;;14.59;100.00
63281;BME280;49406;51.044;3.766;2022-10-14T06:02:26;101242.09;;;14.61;100.00
63281;BME280;49406;51.044;3.766;2022-10-14T06:04:46;101240.16;;;14.61;100.00
63281;BME280;49406;51.044;3.766;2022-10-14T06:07:05;101239.63;;;14.61;100.00
63281;BME280;49406;51.044;3.766;2022-10-14T06:09:26;101239.98;;;14.59;100.00
63281;BME280;49406;51.044;3.766;2022-10-14T06:11:48;101235.23;;;14.55;100.00
63281;BME280;49406;51.044;3.766;2022-10-14T06:14:07;101234.73;;;14.45;100.00
63281;BME280;49406;51.044;3.766;2022-10-14T06:16:25;101236.48;;;14.49;100.00
63281;BME280;49406;51.044;3.766;2022-10-14T06:18:44;101233.31;;;14.52;100.00
63281;BME280;49406;51.044;3.766;2022-10-14T06:21:05;101230.84;;;14.55;100.00
63281;BME280;49406;51.044;3.766;2022-10-14T06:23:25;101230.31;;;14.56;100.00
63281;BME280;49406;51.044;3.766;2022-10-14T06:25:44;101233.48;;;14.54;100.00
63281;BME280;49406;51.044;3.766;2022-10-14T06:28:05;101227.84;;;14.53;100.00
63281;BME280;49406;51.044;3.766;2022-10-14T06:30:24;101228.04;;;14.48;100.00
63281;BME280;49406;51.044;3.766;2022-10-14T06:32:43;101225.20;;;14.39;100.00
63281;BME280;49406;51.044;3.766;2022-10-14T06:35:03;101216.42;;;14.44;100.00
63281;BME280;49406;51.044;3.766;2022-10-14T06:37:22;101208.70;;;14.46;100.00
63281;BME280;49406;51.044;3.766;2022-10-14T06:39:40;101206.23;;;14.47;100.00
63281;BME280;49406;51.044;3.766;2022-10-14T06:42:00;101211.34;;;14.48;100.00
63281;BME280;49406;51.044;3.766;2022-10-14T06:44:20;101216.27;;;14.48;100.00
63281;BME280;49406;51.044;3.766;2022-10-14T06:46:37;101219.77;;;14.50;100.00
63281;BME280;49406;51.044;3.766;2022-10-14T06:48:57;101221.52;;;14.53;100.00
63281;BME280;49406;51.044;3.766;2022-10-14T06:51:16;101218.52;;;14.43;100.00
63281;BME280;49406;51.044;3.766;2022-10-14T06:53:36;101215.03;;;14.46;100.00
63281;BME280;49406;51.044;3.766;2022-10-14T06:55:59;101212.55;;;14.52;100.00
63281;BME280;49406;51.044;3.766;2022-10-14T06:58:19;101215.70;;;14.55;100.00
63281;BME280;49406;51.044;3.766;2022-10-14T07:00:38;101214.29;;;14.58;100.00
63281;BME280;49406;51.044;3.766;2022-10-14T07:02:59;101216.92;;;14.60;100.00
63281;BME280;49406;51.044;3.766;2022-10-14T07:05:19;101216.58;;;14.65;100.00
63281;BME280;49406;51.044;3.766;2022-10-14T07:07:36;101211.63;;;14.68;100.00
63281;BME280;49406;51.044;3.766;2022-10-14T07:09:56;101204.27;;;14.60;100.00
63281;BME280;49406;51.044;3.766;2022-10-14T07:12:16;101204.42;;;14.64;100.00
63281;BME280;49406;51.044;3.766;2022-10-14T07:14:35;101201.59;;;14.69;100.00
63281;BME280;49406;51.044;3.766;2022-10-14T07:16:54;101202.29;;;14.71;100.00
63281;BME280;49406;51.044;3.766;2022-10-14T07:19:14;101200.34;;;14.73;100.00
63281;BME280;49406;51.044;3.766;2022-10-14T07:21:34;101202.45;;;14.74;100.00
63281;BME280;49406;51.044;3.766;2022-10-14T07:23:53;101208.63;;;14.70;100.00
63281;BME280;49406;51.044;3.766;2022-10-14T07:26:12;101214.45;;;14.67;100.00
63281;BME280;49406;51.044;3.766;2022-10-14T07:28:32;101213.36;;;14.74;100.00
63281;BME280;49406;51.044;3.766;2022-10-14T07:30:59;101216.88;;;14.78;100.00
63281;BME280;49406;51.044;3.766;2022-10-14T07:33:19;101221.27;;;14.83;100.00
63281;BME280;49406;51.044;3.766;2022-10-14T07:35:39;101214.20;;;14.88;100.00
63281;BME280;49406;51.044;3.766;2022-10-14T07:37:57;101215.23;;;14.92;100.00
63281;BME280;49406;51.044;3.766;2022-10-14T07:40:17;101215.24;;;14.90;100.00
63281;BME280;49406;51.044;3.766;2022-10-14T07:42:37;101217.92;;;14.84;100.00
63281;BME280;49406;51.044;3.766;2022-10-14T07:44:56;101209.44;;;14.91;100.00
63281;BME280;49406;51.044;3.766;2022-10-14T07:47:16;101211.19;;;14.95;100.00
63281;BME280;49406;51.044;3.766;2022-10-14T07:49:35;101211.88;;;15.00;100.00
63281;BME280;49406;51.044;3.766;2022-10-14T07:51:53;101210.98;;;15.02;100.00
63281;BME280;49406;51.044;3.766;2022-10-14T07:54:14;101213.83;;;14.94;100.00
63281;BME280;49406;51.044;3.766;2022-10-14T07:56:35;101217.70;;;14.99;100.00
63281;BME280;49406;51.044;3.766;2022-10-14T07:58:55;101224.36;;;15.03;100.00
63281;BME280;49406;51.044;3.766;2022-10-14T08:01:18;101222.95;;;15.03;100.00
63281;BME280;49406;51.044;3.766;2022-10-14T08:03:37;101221.36;;;15.04;100.00
63281;BME280;49406;51.044;3.766;2022-10-14T08:06:01;101219.79;;;15.03;100.00
63281;BME280;49406;51.044;3.766;2022-10-14T08:08:20;101215.55;;;15.03;100.00
63281;BME280;49406;51.044;3.766;2022-10-14T08:10:41;101212.02;;;15.04;100.00
63281;BME280;49406;51.044;3.766;2022-10-14T08:12:59;101212.20;;;15.03;100.00
63281;BME280;49406;51.044;3.766;2022-10-14T08:15:18;101215.20;;;15.05;100.00
63281;BME280;49406;51.044;3.766;2022-10-14T08:17:38;101214.66;;;15.06;100.00
63281;BME280;49406;51.044;3.766;2022-10-14T08:19:57;101213.83;;;14.98;100.00
63281;BME280;49406;51.044;3.766;2022-10-14T08:22:17;101209.56;;;15.03;100.00
63281;BME280;49406;51.044;3.766;2022-10-14T08:24:37;101213.43;;;15.06;100.00
63281;BME280;49406;51.044;3.766;2022-10-14T08:26:57;101213.06;;;15.07;100.00
63281;BME280;49406;51.044;3.766;2022-10-14T08:29:18;101212.70;;;15.08;100.00
63281;BME280;49406;51.044;3.766;2022-10-14T08:31:39;101209.89;;;15.11;100.00
63281;BME280;49406;51.044;3.766;2022-10-14T08:33:58;101210.39;;;15.18;100.00
63281;BME280;49406;51.044;3.766;2022-10-14T08:36:19;101214.05;;;15.23;100.00
63281;BME280;49406;51.044;3.766;2022-10-14T08:38:39;101217.04;;;15.24;100.00
63281;BME280;49406;51.044;3.766;2022-10-14T08:41:05;101211.40;;;15.23;100.00
63281;BME280;49406;51.044;3.766;2022-10-14T08:43:30;101210.54;;;15.21;100.00
63281;BME280;49406;51.044;3.766;2022-10-14T08:45:54;101212.98;;;15.24;100.00
63281;BME280;49406;51.044;3.766;2022-10-14T08:48:15;101219.14;;;15.24;100.00
63281;BME280;49406;51.044;3.766;2022-10-14T08:50:40;101218.46;;;15.21;100.00
63281;BME280;49406;51.044;3.766;2022-10-14T08:53:01;101219.71;;;15.19;100.00
63281;BME280;49406;51.044;3.766;2022-10-14T08:55:26;101223.59;;;15.18;100.00
63281;BME280;49406;51.044;3.766;2022-10-14T08:57:52;101220.06;;;15.19;100.00
63281;BME280;49406;51.044;3.766;2022-10-14T09:00:14;101223.56;;;15.22;100.00
63281;BME280;49406;51.044;3.766;2022-10-14T09:02:41;101220.55;;;15.25;100.00
63281;BME280;49406;51.044;3.766;2022-10-14T09:05:02;101211.98;;;15.16;100.00
63281;BME280;49406;51.044;3.766;2022-10-14T09:07:22;101210.91;;;15.18;100.00
63281;BME280;49406;51.044;3.766;2022-10-14T09:09:43;101211.23;;;15.22;100.00
63281;BME280;49406;51.044;3.766;2022-10-14T09:12:10;101214.40;;;15.23;100.00
63281;BME280;49406;51.044;3.766;2022-10-14T09:14:35;101210.88;;;15.22;100.00
63281;BME280;49406;51.044;3.766;2022-10-14T09:16:59;101213.35;;;15.22;100.00
63281;BME280;49406;51.044;3.766;2022-10-14T09:19:29;101214.04;;;15.24;100.00
63281;BME280;49406;51.044;3.766;2022-10-14T09:21:50;101208.92;;;15.28;100.00
63281;BME280;49406;51.044;3.766;2022-10-14T09:24:13;101212.25;;;15.32;100.00
63281;BME280;49406;51.044;3.766;2022-10-14T09:26:39;101219.27;;;15.35;100.00
63281;BME280;49406;51.044;3.766;2022-10-14T09:28:59;101226.13;;;15.38;100.00
63281;BME280;49406;51.044;3.766;2022-10-14T09:31:20;101224.34;;;15.41;100.00
63281;BME280;49406;51.044;3.766;2022-10-14T09:33:40;101217.10;;;15.45;100.00
63281;BME280;49406;51.044;3.766;2022-10-14T09:36:00;101215.34;;;15.48;100.00
63281;BME280;49406;51.044;3.766;2022-10-14T09:38:21;101218.98;;;15.54;100.00
63281;BME280;49406;51.044;3.766;2022-10-14T09:40:42;101219.50;;;15.62;100.00
63281;BME280;49406;51.044;3.766;2022-10-14T09:43:04;101216.81;;;15.68;100.00
63281;BME280;49406;51.044;3.766;2022-10-14T09:45:45;101214.50;;;15.71;100.00
63281;BME280;49406;51.044;3.766;2022-10-14T09:48:05;101213.67;;;15.66;100.00
63281;BME280;49406;51.044;3.766;2022-10-14T09:50:29;101213.59;;;15.75;100.00
63281;BME280;49406;51.044;3.766;2022-10-14T09:52:53;101213.75;;;15.80;100.00
63281;BME280;49406;51.044;3.766;2022-10-14T09:55:19;101212.86;;;15.80;100.00
63281;BME280;49406;51.044;3.766;2022-10-14T09:57:41;101213.21;;;15.80;100.00
63281;BME280;49406;51.044;3.766;2022-10-14T10:00:03;101216.23;;;15.77;100.00
63281;BME280;49406;51.044;3.766;2022-10-14T10:02:30;101219.21;;;15.77;100.00
63281;BME280;49406;51.044;3.766;2022-10-14T10:04:51;101222.20;;;15.81;100.00
63281;BME280;49406;51.044;3.766;2022-10-14T10:07:26;101215.09;;;15.87;100.00
63281;BME280;49406;51.044;3.766;2022-10-14T10:09:54;101215.38;;;15.93;100.00
63281;BME280;49406;51.044;3.766;2022-10-14T10:12:22;101219.96;;;15.93;100.00
63281;BME280;49406;51.044;3.766;2022-10-14T10:14:42;101224.67;;;16.02;100.00
63281;BME280;49406;51.044;3.766;2022-10-14T10:17:14;101220.33;;;16.14;100.00
63281;BME280;49406;51.044;3.766;2022-10-14T10:19:36;101217.81;;;16.20;100.00
63281;BME280;49406;51.044;3.766;2022-10-14T10:22:18;101222.23;;;16.19;100.00
63281;BME280;49406;51.044;3.766;2022-10-14T10:24:39;101225.33;;;16.07;100.00
63281;BME280;49406;51.044;3.766;2022-10-14T10:26:58;101221.27;;;16.09;100.00
63281;BME280;49406;51.044;3.766;2022-10-14T10:29:26;101219.17;;;16.05;100.00
63281;BME280;49406;51.044;3.766;2022-10-14T10:32:08;101212.88;;;16.01;100.00
63281;BME280;49406;51.044;3.766;2022-10-14T10:34:53;101214.64;;;16.00;100.00
63281;BME280;49406;51.044;3.766;2022-10-14T10:37:23;101219.57;;;16.02;100.00
63281;BME280;49406;51.044;3.766;2022-10-14T10:39:48;101216.97;;;15.95;100.00
63281;BME280;49406;51.044;3.766;2022-10-14T10:42:19;101214.59;;;16.05;100.00
63281;BME280;49406;51.044;3.766;2022-10-14T10:45:09;101218.08;;;16.09;100.00
63281;BME280;49406;51.044;3.766;2022-10-14T10:47:38;101212.90;;;16.18;100.00
63281;BME280;49406;51.044;3.766;2022-10-14T10:50:16;101217.38;;;16.30;100.00
63281;BME280;49406;51.044;3.766;2022-10-14T10:52:51;101207.54;;;16.42;100.00
63281;BME280;49406;51.044;3.766;2022-10-14T10:55:25;101193.31;;;16.53;100.00
63281;BME280;49406;51.044;3.766;2022-10-14T10:57:54;101179.92;;;16.68;100.00
63281;BME280;49406;51.044;3.766;2022-10-14T11:00:18;101175.81;;;17.02;100.00
63281;BME280;49406;51.044;3.766;2022-10-14T11:02:55;101171.98;;;17.36;100.00
63281;BME280;49406;51.044;3.766;2022-10-14T11:05:19;101174.96;;;17.61;100.00
63281;BME280;49406;51.044;3.766;2022-10-14T11:07:42;101165.61;;;17.84;100.00
63281;BME280;49406;51.044;3.766;2022-10-14T11:10:31;101162.54;;;18.09;100.00
63281;BME280;49406;51.044;3.766;2022-10-14T11:13:23;101164.11;;;18.20;100.00
63281;BME280;49406;51.044;3.766;2022-10-14T11:15:51;101161.97;;;18.30;100.00
63281;BME280;49406;51.044;3.766;2022-10-14T11:18:24;101160.35;;;18.41;100.00
63281;BME280;49406;51.044;3.766;2022-10-14T11:20:59;101152.30;;;18.45;100.00
63281;BME280;49406;51.044;3.766;2022-10-14T11:23:47;101145.84;;;18.41;100.00
63281;BME280;49406;51.044;3.766;2022-10-14T11:26:13;101144.11;;;18.48;100.00
63281;BME280;49406;51.044;3.766;2022-10-14T11:28:36;101147.62;;;18.50;99.98
63281;BME280;49406;51.044;3.766;2022-10-14T11:31:04;101161.24;;;18.41;99.81
63281;BME280;49406;51.044;3.766;2022-10-14T11:33:36;101161.95;;;18.40;97.96
63281;BME280;49406;51.044;3.766;2022-10-14T11:36:09;101156.42;;;18.33;95.43
63281;BME280;49406;51.044;3.766;2022-10-14T11:38:44;101145.64;;;18.23;95.45
63281;BME280;49406;51.044;3.766;2022-10-14T11:41:15;101141.58;;;18.32;94.53
63281;BME280;49406;51.044;3.766;2022-10-14T11:43:42;101133.31;;;18.39;94.39
63281;BME280;49406;51.044;3.766;2022-10-14T11:46:08;101136.08;;;18.33;93.46
63281;BME280;49406;51.044;3.766;2022-10-14T11:48:34;101134.39;;;18.28;93.59
63281;BME280;49406;51.044;3.766;2022-10-14T11:51:00;101129.11;;;18.45;93.10
63281;BME280;49406;51.044;3.766;2022-10-14T11:53:26;101126.05;;;18.48;91.94
63281;BME280;49406;51.044;3.766;2022-10-14T11:55:59;101121.41;;;18.41;92.69
63281;BME280;49406;51.044;3.766;2022-10-14T11:58:23;101129.46;;;18.54;92.69
63281;BME280;49406;51.044;3.766;2022-10-14T12:00:45;101122.77;;;18.61;91.50
63281;BME280;49406;51.044;3.766;2022-10-14T12:03:12;101115.48;;;18.61;91.57
63281;BME280;49406;51.044;3.766;2022-10-14T12:05:40;101112.37;;;18.69;89.12
63281;BME280;49406;51.044;3.766;2022-10-14T12:08:08;101116.39;;;18.72;89.31
63281;BME280;49406;51.044;3.766;2022-10-14T12:10:35;101120.44;;;18.63;89.76
63281;BME280;49406;51.044;3.766;2022-10-14T12:12:56;101116.08;;;18.59;89.28
63281;BME280;49406;51.044;3.766;2022-10-14T12:15:20;101111.90;;;18.66;88.69
63281;BME280;49406;51.044;3.766;2022-10-14T12:17:45;101108.16;;;18.67;89.05